createdAt,value
2018-09-04T00:01:26.583Z,32.23
2018-09-04T00:03:55.090Z,28.43
2018-09-04T00:06:23.582Z,31.10
2018-09-04T00:08:52.312Z,32.47
2018-09-04T00:11:20.806Z,26.77
2018-09-04T00:13:49.163Z,26.97
2018-09-04T00:16:17.787Z,29.10
2018-09-04T00:18:46.677Z,26.97
2018-09-04T00:21:15.427Z,29.33
2018-09-04T00:23:44.139Z,25.70
2018-09-04T00:26:12.801Z,28.17
2018-09-04T00:28:42.093Z,28.07
2018-09-04T00:31:10.715Z,27.17
2018-09-04T00:33:39.226Z,33.13
2018-09-04T00:36:08.248Z,29.53
2018-09-04T00:38:36.747Z,31.07
2018-09-04T00:41:05.283Z,31.10
2018-09-04T00:43:33.723Z,31.33
2018-09-04T00:46:02.168Z,31.67
2018-09-04T00:48:31.118Z,35.83
2018-09-04T00:50:59.953Z,32.23
2018-09-04T00:53:28.588Z,32.63
2018-09-04T00:55:57.139Z,30.70
2018-09-04T00:58:25.609Z,34.60
2018-09-04T01:00:54.350Z,36.25
2018-09-04T01:03:22.883Z,38.70
2018-09-04T01:05:51.819Z,36.57
2018-09-04T01:08:20.375Z,37.27
2018-09-04T01:10:48.910Z,36.27
2018-09-04T01:13:17.618Z,37.03
2018-09-04T01:15:46.082Z,34.33
2018-09-04T01:18:14.706Z,35.53
2018-09-04T01:20:43.328Z,33.40
2018-09-04T01:23:11.822Z,37.07
2018-09-04T01:25:41.162Z,33.80
2018-09-04T01:28:10.098Z,36.90
2018-09-04T01:30:38.826Z,34.80
2018-09-04T01:33:07.446Z,34.77
2018-09-04T01:35:35.884Z,38.50
2018-09-04T01:38:04.379Z,36.73
2018-09-04T01:40:32.922Z,37.50
2018-09-04T01:43:01.612Z,43.60
2018-09-04T01:45:30.067Z,41.83
2018-09-04T01:47:58.845Z,44.27
2018-09-04T01:50:27.257Z,43.97
2018-09-04T01:52:55.898Z,39.17
2018-09-04T01:55:24.414Z,42.40
2018-09-04T01:57:52.960Z,43.80
2018-09-04T02:00:21.670Z,44.33
2018-09-04T02:02:50.194Z,46.13
2018-09-04T02:05:18.796Z,49.77
2018-09-04T02:07:47.378Z,50.00
2018-09-04T02:10:15.800Z,45.13
2018-09-04T02:12:44.354Z,42.57
2018-09-04T02:15:12.970Z,45.60
2018-09-04T02:17:42.019Z,44.07
2018-09-04T02:20:10.747Z,47.27
2018-09-04T02:22:39.211Z,49.50
2018-09-04T02:25:08.532Z,47.17
2018-09-04T02:27:37.557Z,47.07
2018-09-04T02:30:06.176Z,52.43
2018-09-04T02:32:34.931Z,48.40
2018-09-04T02:35:03.967Z,49.20
2018-09-04T02:37:32.562Z,44.97
2018-09-04T02:40:01.302Z,44.93
2018-09-04T02:42:29.770Z,49.53
2018-09-04T02:44:58.207Z,55.83
2018-09-04T02:47:26.995Z,55.03
2018-09-04T02:49:55.972Z,45.75
2018-09-04T02:52:24.594Z,49.07
2018-09-04T02:54:53.035Z,49.23
2018-09-04T02:57:21.987Z,49.00
2018-09-04T02:59:51.346Z,49.20
2018-09-04T03:02:20.113Z,50.70
2018-09-04T03:04:48.895Z,52.63
2018-09-04T03:07:17.499Z,56.60
2018-09-04T03:09:46.075Z,57.43
2018-09-04T03:12:14.790Z,53.17
2018-09-04T03:14:43.539Z,55.17
2018-09-04T03:17:11.998Z,54.13
2018-09-04T03:19:41.682Z,53.57
2018-09-04T03:22:10.222Z,54.37
2018-09-04T03:24:38.770Z,51.37
2018-09-04T03:27:07.226Z,52.97
2018-09-04T03:29:35.829Z,55.00
2018-09-04T03:32:04.296Z,54.33
2018-09-04T03:34:33.055Z,59.87
2018-09-04T03:37:01.837Z,55.10
2018-09-04T03:39:30.272Z,56.40
2018-09-04T03:41:59.207Z,55.37
2018-09-04T03:44:27.877Z,54.63
2018-09-04T03:46:56.548Z,54.30
2018-09-04T03:49:25.090Z,54.37
2018-09-04T03:51:54.122Z,61.65
2018-09-04T03:54:23.232Z,52.50
2018-09-04T03:56:51.942Z,58.98
2018-09-04T03:59:20.406Z,59.03
2018-09-04T04:01:49.015Z,62.27
2018-09-04T04:04:17.461Z,64.70
2018-09-04T04:06:46.073Z,58.33
2018-09-04T04:09:14.725Z,62.43
2018-09-04T04:11:43.184Z,61.83
2018-09-04T04:14:11.875Z,64.23
2018-09-04T04:16:40.321Z,64.70
2018-09-04T04:19:08.931Z,62.33
2018-09-04T04:21:37.438Z,66.57
2018-09-04T04:24:06.098Z,63.27
2018-09-04T04:26:34.538Z,60.03
2018-09-04T04:29:03.024Z,63.13
2018-09-04T04:31:31.562Z,61.63
2018-09-04T04:34:00.178Z,61.18
2018-09-04T04:36:28.894Z,59.10
2018-09-04T04:38:57.592Z,60.43
2018-09-04T04:41:26.015Z,57.23
2018-09-04T04:43:54.507Z,52.53
2018-09-04T04:46:23.249Z,59.03
2018-09-04T04:48:52.461Z,49.42
2018-09-04T04:51:21.240Z,54.43
2018-09-04T04:53:50.347Z,60.00
2018-09-04T04:56:18.960Z,55.07
2018-09-04T04:58:47.637Z,51.67
2018-09-04T05:01:16.258Z,47.80
2018-09-04T05:03:44.971Z,47.77
2018-09-04T05:06:13.596Z,51.87
2018-09-04T05:08:42.322Z,42.67
2018-09-04T05:11:10.969Z,46.03
2018-09-04T05:13:39.736Z,45.77
2018-09-04T05:16:08.290Z,46.27
2018-09-04T05:18:37.056Z,45.87
2018-09-04T05:21:05.721Z,46.73
2018-09-04T05:23:34.195Z,49.10
2018-09-04T05:26:02.623Z,61.27
2018-09-04T05:28:31.285Z,51.97
2018-09-04T05:31:00.005Z,50.85
2018-09-04T05:33:36.533Z,56.77
2018-09-04T05:36:05.352Z,54.07
2018-09-04T05:38:34.316Z,48.57
2018-09-04T05:41:03.039Z,51.87
2018-09-04T05:43:41.502Z,53.47
2018-09-04T05:46:14.499Z,51.63
2018-09-04T05:48:43.403Z,51.17
2018-09-04T05:51:12.073Z,56.07
2018-09-04T05:53:41.447Z,50.50
2018-09-04T05:56:10.000Z,49.17
2018-09-04T05:58:38.554Z,50.03
2018-09-04T06:01:07.154Z,47.77
2018-09-04T06:03:35.547Z,49.63
2018-09-04T06:06:04.130Z,47.73
2018-09-04T06:08:32.578Z,50.37
2018-09-04T06:11:01.148Z,53.10
2018-09-04T06:13:29.632Z,53.03
2018-09-04T06:15:58.303Z,50.87
2018-09-04T06:18:26.987Z,76.33
2018-09-04T06:20:55.475Z,44.23
2018-09-04T06:23:24.128Z,44.17
2018-09-04T06:25:53.132Z,48.87
2018-09-04T06:28:21.815Z,40.10
2018-09-04T06:30:50.411Z,42.03
2018-09-04T06:33:19.153Z,45.50
2018-09-04T06:35:47.919Z,50.87
2018-09-04T06:38:16.326Z,40.63
2018-09-04T06:40:45.459Z,40.63
2018-09-04T06:43:14.125Z,40.40
2018-09-04T06:45:42.558Z,39.30
2018-09-04T06:48:11.103Z,48.63
2018-09-04T06:50:39.685Z,47.33
2018-09-04T06:53:08.090Z,50.93
2018-09-04T06:55:36.666Z,44.03
2018-09-04T06:58:05.153Z,44.67
2018-09-04T07:00:34.608Z,48.43
2018-09-04T07:03:03.162Z,46.47
2018-09-04T07:05:31.687Z,43.93
2018-09-04T07:08:00.323Z,43.00
2018-09-04T07:10:29.083Z,43.73
2018-09-04T07:12:57.499Z,45.20
2018-09-04T07:15:26.119Z,49.33
2018-09-04T07:17:54.526Z,43.47
2018-09-04T07:20:23.193Z,47.17
2018-09-04T07:22:51.586Z,46.40
2018-09-04T07:25:20.144Z,46.43
2018-09-04T07:27:48.593Z,45.47
2018-09-04T07:30:17.108Z,45.07
2018-09-04T07:32:45.620Z,41.93
2018-09-04T07:35:14.194Z,46.30
2018-09-04T07:37:42.671Z,51.97
2018-09-04T07:40:11.159Z,46.30
2018-09-04T07:42:39.938Z,46.57
2018-09-04T07:45:08.679Z,43.03
2018-09-04T07:47:37.210Z,47.57
2018-09-04T07:50:06.115Z,45.13
2018-09-04T07:52:34.566Z,49.20
2018-09-04T07:55:03.200Z,46.53
2018-09-04T07:57:31.746Z,49.37
2018-09-04T08:00:00.641Z,51.23
2018-09-04T08:02:29.351Z,44.83
2018-09-04T08:04:57.750Z,49.07
2018-09-04T08:07:26.265Z,43.83
2018-09-04T08:09:54.725Z,47.77
2018-09-04T08:12:23.178Z,42.90
2018-09-04T08:14:51.595Z,43.53
2018-09-04T08:17:20.188Z,40.80
2018-09-04T08:19:49.120Z,37.53
2018-09-04T08:22:17.577Z,34.80
2018-09-04T08:24:46.343Z,31.87
2018-09-04T08:27:15.196Z,36.70
2018-09-04T08:29:43.738Z,34.53
2018-09-04T08:32:12.226Z,35.70
2018-09-04T08:34:40.690Z,32.33
2018-09-04T08:37:09.234Z,32.57
2018-09-04T08:39:37.666Z,34.03
2018-09-04T08:42:06.555Z,31.60
2018-09-04T08:44:35.267Z,32.63
2018-09-04T08:47:03.759Z,33.87
2018-09-04T08:49:32.501Z,34.50
2018-09-04T08:52:01.491Z,42.43
2018-09-04T08:54:30.303Z,35.33
2018-09-04T08:56:59.471Z,37.07
2018-09-04T08:59:28.251Z,38.80
2018-09-04T09:01:56.684Z,38.60
2018-09-04T09:04:25.315Z,41.00
2018-09-04T09:06:53.719Z,46.60
2018-09-04T09:09:22.307Z,37.90
2018-09-04T09:11:50.754Z,37.03
2018-09-04T09:14:19.306Z,36.53
2018-09-04T09:16:48.724Z,30.40
2018-09-04T09:19:17.359Z,34.97
2018-09-04T09:21:45.812Z,33.77
2018-09-04T09:24:14.323Z,31.93
2018-09-04T09:26:43.006Z,34.00
2018-09-04T09:29:11.437Z,32.93
2018-09-04T09:31:39.967Z,29.57
2018-09-04T09:34:08.402Z,25.67
2018-09-04T09:36:36.929Z,25.33
2018-09-04T09:39:07.295Z,26.43
2018-09-04T09:41:35.815Z,28.30
2018-09-04T09:44:04.478Z,24.93
2018-09-04T09:46:32.991Z,26.97
2018-09-04T09:49:01.675Z,19.67
2018-09-04T09:51:31.203Z,19.03
2018-09-04T09:54:00.395Z,15.13
2018-09-04T09:56:29.396Z,13.53
2018-09-04T09:58:58.587Z,13.93
2018-09-04T10:01:35.512Z,12.17
2018-09-04T10:04:05.727Z,13.27
2018-09-04T10:06:34.354Z,11.83
2018-09-04T10:09:03.053Z,10.87
2018-09-04T10:11:31.566Z,12.10
2018-09-04T10:14:01.024Z,11.75
2018-09-04T10:16:30.295Z,11.10
2018-09-04T10:18:59.859Z,11.23
2018-09-04T10:21:28.407Z,12.30
2018-09-04T10:23:57.595Z,13.55
2018-09-04T10:26:26.307Z,13.43
2018-09-04T10:28:54.958Z,11.40
2018-09-04T10:31:23.361Z,14.33
2018-09-04T10:33:51.986Z,14.43
2018-09-04T10:36:20.429Z,17.40
2018-09-04T10:38:49.022Z,17.00
2018-09-04T10:41:17.543Z,15.23
2018-09-04T10:43:45.970Z,17.07
2018-09-04T10:46:15.399Z,16.70
2018-09-04T10:48:43.860Z,16.97
2018-09-04T10:51:12.362Z,16.20
2018-09-04T10:53:40.867Z,16.27
2018-09-04T10:56:09.371Z,16.13
2018-09-04T10:58:37.826Z,15.80
2018-09-04T11:01:06.406Z,15.53
2018-09-04T11:03:34.870Z,14.13
2018-09-04T11:06:03.458Z,16.13
2018-09-04T11:08:31.910Z,15.67
2018-09-04T11:11:00.574Z,16.63
2018-09-04T11:13:29.054Z,14.97
2018-09-04T11:15:57.567Z,54.53
2018-09-04T11:18:26.075Z,19.20
2018-09-04T11:20:54.611Z,18.27
2018-09-04T11:23:23.430Z,29.27
2018-09-04T11:25:51.928Z,20.00
2018-09-04T11:28:20.527Z,20.07
2018-09-04T11:30:49.081Z,18.93
2018-09-04T11:33:17.655Z,19.43
2018-09-04T11:35:46.091Z,21.07
2018-09-04T11:38:14.524Z,21.73
2018-09-04T11:40:43.024Z,22.27
2018-09-04T11:43:11.608Z,19.10
2018-09-04T11:45:40.246Z,22.20
2018-09-04T11:48:08.654Z,21.37
2018-09-04T11:50:37.126Z,23.50
2018-09-04T11:53:05.830Z,25.03
2018-09-04T11:55:34.485Z,26.13
2018-09-04T11:58:02.926Z,27.03
2018-09-04T12:00:42.918Z,26.53
2018-09-04T12:03:12.944Z,25.67
2018-09-04T12:05:42.970Z,32.23
2018-09-04T12:08:11.571Z,31.57
2018-09-04T12:10:40.542Z,31.57
2018-09-04T12:13:09.063Z,33.50
2018-09-04T12:15:41.183Z,35.17
2018-09-04T12:18:10.391Z,37.73
2018-09-04T12:20:45.663Z,33.60
2018-09-04T12:23:14.468Z,36.87
2018-09-04T12:25:43.505Z,37.20
2018-09-04T12:28:11.929Z,33.93
2018-09-04T12:30:40.655Z,37.30
2018-09-04T12:33:09.134Z,36.63
2018-09-04T12:35:37.823Z,34.17
2018-09-04T12:38:08.587Z,36.00
2018-09-04T12:40:37.366Z,35.23
2018-09-04T12:43:05.947Z,33.33
2018-09-04T12:45:39.913Z,36.20
2018-09-04T12:48:10.591Z,37.43
2018-09-04T12:50:39.417Z,36.80
2018-09-04T12:53:08.123Z,36.90
2018-09-04T12:55:36.588Z,33.30
2018-09-04T12:58:05.051Z,32.97
2018-09-04T13:00:33.588Z,32.77
2018-09-04T13:03:02.043Z,32.67
2018-09-04T13:05:30.583Z,33.47
2018-09-04T13:07:59.028Z,35.07
2018-09-04T13:10:27.827Z,32.83
2018-09-04T13:12:56.862Z,30.30
2018-09-04T13:15:25.546Z,35.07
2018-09-04T13:17:54.022Z,46.30
2018-09-04T13:20:22.600Z,26.53
2018-09-04T13:22:50.997Z,29.70
2018-09-04T13:25:19.644Z,27.07
2018-09-04T13:27:48.077Z,27.63
2018-09-04T13:30:16.655Z,27.37
2018-09-04T13:32:45.472Z,25.13
2018-09-04T13:35:14.021Z,29.67
2018-09-04T13:37:42.871Z,25.00
2018-09-04T13:40:11.718Z,28.00
2018-09-04T13:42:40.134Z,26.93
2018-09-04T13:45:08.694Z,28.57
2018-09-04T13:47:37.166Z,27.30
2018-09-04T13:50:05.706Z,25.40
2018-09-04T13:52:34.342Z,23.03
2018-09-04T13:55:02.848Z,22.33
2018-09-04T13:57:31.394Z,24.27
2018-09-04T13:59:59.856Z,21.60
2018-09-04T14:02:28.282Z,24.47
2018-09-04T14:04:56.859Z,20.83
2018-09-04T14:07:25.647Z,20.63
2018-09-04T14:09:54.191Z,22.50
2018-09-04T14:12:22.795Z,18.43
2018-09-04T14:14:51.549Z,19.00
2018-09-04T14:17:20.779Z,19.13
2018-09-04T14:19:49.222Z,19.07
2018-09-04T14:22:17.881Z,19.47
2018-09-04T14:24:46.292Z,17.73
2018-09-04T14:27:14.861Z,18.90
2018-09-04T14:30:15.536Z,18.03
2018-09-04T14:32:12.217Z,18.63
2018-09-04T14:34:40.747Z,19.40
2018-09-04T14:37:09.292Z,18.20
2018-09-04T14:39:37.775Z,16.97
2018-09-04T14:42:06.405Z,18.27
2018-09-04T14:44:35.028Z,19.57
2018-09-04T14:47:03.863Z,17.47
2018-09-04T14:49:32.275Z,16.70
2018-09-04T14:52:36.538Z,17.33
2018-09-04T14:55:05.763Z,17.87
2018-09-04T14:57:34.692Z,18.87
2018-09-04T15:00:03.559Z,19.07
2018-09-04T15:02:31.992Z,18.17
2018-09-04T15:05:00.412Z,17.33
2018-09-04T15:07:28.859Z,17.73
2018-09-04T15:09:57.268Z,15.30
2018-09-04T15:12:25.803Z,15.87
2018-09-04T15:14:54.255Z,15.40
2018-09-04T15:17:22.676Z,14.43
2018-09-04T15:19:51.111Z,22.33
2018-09-04T15:22:19.576Z,25.37
2018-09-04T15:24:48.038Z,19.30
2018-09-04T15:27:16.438Z,15.97
2018-09-04T15:29:45.062Z,13.77
2018-09-04T15:32:13.491Z,15.27
2018-09-04T15:34:42.060Z,16.53
2018-09-04T15:37:10.628Z,19.40
2018-09-04T15:39:39.136Z,15.07
2018-09-04T15:42:07.582Z,14.57
2018-09-04T15:44:36.059Z,13.50
2018-09-04T15:47:04.606Z,15.27
2018-09-04T15:49:38.419Z,14.47
2018-09-04T15:52:06.865Z,13.50
2018-09-04T15:54:35.351Z,13.30
2018-09-04T15:57:03.791Z,14.03
2018-09-04T15:59:32.427Z,13.07
2018-09-04T16:02:00.834Z,13.83
2018-09-04T16:04:29.249Z,15.07
2018-09-04T16:06:57.721Z,12.80
2018-09-04T16:09:26.295Z,15.83
2018-09-04T16:11:54.857Z,14.97
2018-09-04T16:14:23.395Z,15.43
2018-09-04T16:16:51.880Z,12.80
2018-09-04T16:19:20.283Z,14.33
2018-09-04T16:21:48.862Z,19.07
2018-09-04T16:24:17.282Z,13.07
2018-09-04T16:26:45.748Z,13.50
2018-09-04T16:29:14.218Z,13.60
2018-09-04T16:31:42.661Z,13.27
2018-09-04T16:34:11.134Z,13.50
2018-09-04T16:36:39.782Z,12.70
2018-09-04T16:39:08.225Z,12.97
2018-09-04T16:41:36.854Z,13.03
2018-09-04T16:44:05.496Z,13.67
2018-09-04T16:46:33.900Z,14.07
2018-09-04T16:49:02.319Z,14.27
2018-09-04T16:51:30.782Z,15.13
2018-09-04T16:53:59.176Z,14.90
2018-09-04T16:56:27.703Z,19.13
2018-09-04T16:58:56.142Z,14.10
2018-09-04T17:01:24.582Z,15.07
2018-09-04T17:03:53.089Z,17.03
2018-09-04T17:06:21.490Z,13.60
2018-09-04T17:08:49.910Z,15.70
2018-09-04T17:11:18.420Z,14.80
2018-09-04T17:13:47.081Z,13.17
2018-09-04T17:16:15.498Z,14.20
2018-09-04T17:18:43.959Z,17.97
2018-09-04T17:21:12.383Z,15.40
2018-09-04T17:23:40.999Z,12.97
2018-09-04T17:26:09.527Z,19.73
2018-09-04T17:28:38.014Z,35.13
2018-09-04T17:31:06.699Z,23.53
2018-09-04T17:33:35.226Z,31.77
2018-09-04T17:36:03.808Z,25.47
2018-09-04T17:38:32.260Z,36.03
2018-09-04T17:41:00.818Z,42.27
2018-09-04T17:43:29.252Z,34.23
2018-09-04T17:45:57.935Z,43.20
2018-09-04T17:48:26.411Z,37.27
2018-09-04T17:50:54.843Z,31.67
2018-09-04T17:53:23.303Z,28.40
2018-09-04T17:55:51.791Z,29.53
2018-09-04T17:58:20.199Z,26.80
2018-09-04T18:00:48.986Z,27.90
2018-09-04T18:03:17.634Z,27.57
2018-09-04T18:05:46.182Z,29.07
2018-09-04T18:08:14.662Z,37.50
2018-09-04T18:10:43.121Z,28.03
2018-09-04T18:13:11.666Z,26.80
2018-09-04T18:15:40.123Z,29.97
2018-09-04T18:18:08.591Z,28.97
2018-09-04T18:20:37.023Z,27.17
2018-09-04T18:23:05.519Z,27.90
2018-09-04T18:25:33.934Z,29.17
2018-09-04T18:28:02.425Z,30.10
2018-09-04T18:30:31.208Z,31.63
2018-09-04T18:32:59.665Z,29.60
2018-09-04T18:35:28.158Z,29.60
2018-09-04T18:37:56.621Z,27.47
2018-09-04T18:40:25.048Z,30.63
2018-09-04T18:42:53.478Z,52.43
2018-09-04T18:45:33.421Z,58.57
2018-09-04T18:48:01.986Z,48.10
2018-09-04T18:50:30.387Z,36.07
2018-09-04T18:52:58.846Z,35.63
2018-09-04T18:55:27.254Z,38.47
2018-09-04T18:57:55.724Z,39.87
2018-09-04T19:00:25.007Z,36.97
2018-09-04T19:02:53.446Z,29.40
2018-09-04T19:05:21.884Z,31.90
2018-09-04T19:07:50.360Z,58.90
2018-09-04T19:10:18.762Z,32.90
2018-09-04T19:12:47.189Z,33.47
2018-09-04T19:15:15.701Z,29.70
2018-09-04T19:17:44.284Z,30.67
2018-09-04T19:20:12.808Z,32.70
2018-09-04T19:22:41.431Z,28.60
2018-09-04T19:25:09.925Z,25.40
2018-09-04T19:27:38.406Z,26.73
2018-09-04T19:30:06.915Z,30.90
2018-09-04T19:32:35.466Z,39.27
2018-09-04T19:35:03.940Z,43.43
2018-09-04T19:37:32.490Z,37.10
2018-09-04T19:40:01.082Z,34.03
2018-09-04T19:42:29.536Z,36.43
2018-09-04T19:44:58.019Z,35.83
2018-09-04T19:47:26.429Z,28.73
2018-09-04T19:49:54.849Z,31.73
2018-09-04T19:52:23.478Z,28.13
2018-09-04T19:54:52.100Z,30.33
2018-09-04T19:57:20.578Z,30.57
2018-09-04T19:59:49.153Z,31.57
2018-09-04T20:02:17.635Z,35.00
2018-09-04T20:04:46.108Z,32.13
2018-09-04T20:07:14.607Z,31.87
2018-09-04T20:09:43.280Z,32.13
2018-09-04T20:12:11.862Z,36.03
2018-09-04T20:14:40.370Z,37.07
2018-09-04T20:17:08.896Z,39.73
2018-09-04T20:19:37.351Z,33.93
2018-09-04T20:22:07.467Z,31.57
2018-09-04T20:24:36.107Z,35.93
2018-09-04T20:27:04.887Z,32.60
2018-09-04T20:29:33.388Z,29.97
2018-09-04T20:32:02.010Z,31.30
2018-09-04T20:34:30.581Z,30.00
2018-09-04T20:36:59.046Z,27.30
2018-09-04T20:39:27.678Z,27.37
2018-09-04T20:41:56.385Z,29.60
2018-09-04T20:44:24.890Z,28.13
2018-09-04T20:46:53.306Z,25.27
2018-09-04T20:49:21.860Z,27.80
2018-09-04T20:51:50.357Z,26.23
2018-09-04T20:54:18.802Z,27.07
2018-09-04T20:56:58.807Z,25.57
2018-09-04T20:59:38.996Z,26.90
2018-09-04T21:02:18.961Z,26.80
2018-09-04T21:04:58.783Z,26.00
2018-09-04T21:07:44.082Z,25.07
2018-09-04T21:10:12.550Z,22.97
2018-09-04T21:12:41.094Z,23.73
2018-09-04T21:15:09.809Z,25.40
2018-09-04T21:17:38.249Z,23.60
2018-09-04T21:20:06.678Z,21.83
2018-09-04T21:22:35.383Z,21.77
2018-09-04T21:25:04.030Z,20.73
2018-09-04T21:27:32.571Z,20.13
2018-09-04T21:30:01.094Z,20.77
2018-09-04T21:32:29.579Z,18.77
2018-09-04T21:34:58.232Z,18.13
2018-09-04T21:37:26.842Z,18.23
2018-09-04T21:39:55.298Z,20.10
2018-09-04T21:42:24.265Z,20.27
2018-09-04T21:44:52.832Z,21.03
2018-09-04T21:47:21.557Z,21.60
2018-09-04T21:49:50.051Z,19.40
2018-09-04T21:52:18.519Z,16.60
2018-09-04T21:54:46.994Z,17.33
2018-09-04T21:57:15.490Z,16.57
2018-09-04T21:59:44.284Z,17.60
2018-09-04T22:02:12.866Z,17.73
2018-09-04T22:04:41.802Z,14.90
2018-09-04T22:07:10.240Z,18.77
2018-09-04T22:09:39.022Z,16.43
2018-09-04T22:12:09.526Z,16.70
2018-09-04T22:14:38.028Z,17.93
2018-09-04T22:17:06.710Z,17.27
2018-09-04T22:19:35.192Z,14.87
2018-09-04T22:22:03.685Z,16.00
2018-09-04T22:24:34.514Z,17.40
2018-09-04T22:27:06.143Z,18.03
2018-09-04T22:29:35.588Z,15.93
2018-09-04T22:32:05.739Z,19.57
2018-09-04T22:34:34.342Z,19.50
2018-09-04T22:37:03.793Z,21.13
2018-09-04T22:39:32.422Z,15.23
2018-09-04T22:42:01.257Z,16.40
2018-09-04T22:44:30.244Z,14.27
2018-09-04T22:46:59.120Z,16.17
2018-09-04T22:49:27.706Z,14.73
2018-09-04T22:52:00.887Z,15.60
2018-09-04T22:54:29.684Z,15.13
2018-09-04T22:56:58.174Z,16.70
2018-09-04T22:59:27.766Z,16.57
2018-09-04T23:01:56.278Z,13.47
2018-09-04T23:04:24.756Z,16.20
2018-09-04T23:06:53.365Z,14.13
2018-09-04T23:09:22.092Z,16.87
2018-09-04T23:11:50.731Z,14.23
2018-09-04T23:14:19.271Z,16.00
2018-09-04T23:16:47.839Z,15.33
2018-09-04T23:19:16.409Z,15.60
2018-09-04T23:21:45.021Z,16.17
2018-09-04T23:24:13.546Z,14.73
2018-09-04T23:26:42.019Z,15.07
2018-09-04T23:29:10.536Z,16.60
2018-09-04T23:31:39.182Z,18.20
2018-09-04T23:34:07.693Z,15.00
2018-09-04T23:36:36.246Z,14.20
2018-09-04T23:39:05.750Z,14.43
2018-09-04T23:41:34.445Z,14.50
2018-09-04T23:44:03.472Z,15.23
2018-09-04T23:46:32.670Z,15.47
2018-09-04T23:49:01.169Z,15.57
2018-09-04T23:51:29.717Z,16.03
2018-09-04T23:53:58.314Z,15.67
2018-09-04T23:56:26.805Z,15.30
2018-09-04T23:58:55.427Z,15.67
